Terminal Aerodrome Forecast
Issued by NWS

Home | Current Version | Previous Version | Text Only | Print | Product List | Glossary On
Versions: 1 2 3 4 5 6 7 8 9 10 11 12 13 14 15 16 17 18 19 20 21 22
377
FTUS41 KILN 101501 AAB
TAFLUK
TAF AMD
KLUK 101501Z 1015/1112 26012G18KT 6SM -SHSN BKN028 OVC040
     FM101800 27014G20KT P6SM -SHSN OVC040
     FM110000 27007KT P6SM BKN040
     FM111000 28005KT P6SM SCT040=

USA.gov is the U.S. government's official web portal to all federal, state and local government web resources and services.